Time;durP1;ratioP1;P1;durP2;ratioP2;P2;SDS_P1;SDS_P2;PMS_P1;PMS_P2;Temp;Humidity;BMP_temperature;BMP_pressure;BME280_temperature;BME280_humidity;BME280_pressure;Samples;Min_cycle;Max_cycle;Signal;HPM_P1;HPM_P2
2022/11/22 00:00:36;;;;;;;;;;;3.70;99.90;;;;;;5013853;28;19967;-80
2022/11/22 00:03:01;;;;;;;;;;;3.70;99.90;;;;;;5038124;28;19925;-83
2022/11/22 00:05:27;;;;;;;;;;;3.70;99.90;;;;;;5017461;28;20277;-80
2022/11/22 00:07:53;;;;;;;;;;;3.70;99.90;;;;;;5017571;28;19932;-80
2022/11/22 00:10:18;;;;;;;;;;;3.70;99.90;;;;;;5024036;28;19921;-81
2022/11/22 00:12:44;;;;;;;;;;;3.70;99.90;;;;;;5017184;28;19925;-81
2022/11/22 00:15:10;;;;;;;;;;;3.70;99.90;;;;;;5013707;28;19922;-81
2022/11/22 00:17:36;;;;;;;;;;;3.70;99.90;;;;;;5025255;28;19976;-80
2022/11/22 00:20:02;;;;;;;;;;;3.70;99.90;;;;;;5017816;28;19991;-80
2022/11/22 00:22:29;;;;;;;;;;;3.70;99.90;;;;;;5016526;28;19988;-81
2022/11/22 00:24:54;;;;;;;;;;;3.70;99.90;;;;;;4999439;28;20019;-84
2022/11/22 00:27:20;;;;;;;;;;;3.70;99.90;;;;;;5018150;28;20059;-81
2022/11/22 00:29:46;;;;;;;;;;;3.70;99.90;;;;;;5034034;28;19933;-81
2022/11/22 00:32:11;;;;;;;;;;;3.80;99.90;;;;;;5020158;28;20420;-81
2022/11/22 00:34:37;;;;;;;;;;;3.70;99.90;;;;;;5036060;28;19922;-81
2022/11/22 00:37:03;;;;;;;;;;;3.70;99.90;;;;;;5020034;28;19943;-80
2022/11/22 00:39:28;;;;;;;;;;;3.70;99.90;;;;;;5017005;28;19952;-84
2022/11/22 00:41:54;;;;;;;;;;;3.70;99.90;;;;;;5015622;28;19925;-83
2022/11/22 00:44:19;;;;;;;;;;;3.70;99.90;;;;;;5014992;28;19921;-81
2022/11/22 00:46:45;;;;;;;;;;;3.70;99.90;;;;;;5018646;28;19933;-83
2022/11/22 00:49:10;;;;;;;;;;;3.70;99.90;;;;;;5022416;28;20295;-81
2022/11/22 00:51:36;;;;;;;;;;;3.70;99.90;;;;;;5015175;28;19925;-81
2022/11/22 00:54:01;;;;;;;;;;;3.70;99.90;;;;;;5021166;28;20027;-83
2022/11/22 00:56:27;;;;;;;;;;;3.70;99.90;;;;;;5017926;28;19921;-80
2022/11/22 00:58:53;;;;;;;;;;;3.70;99.90;;;;;;5022251;28;19968;-80
2022/11/22 01:01:18;;;;;;;;;;;3.80;99.90;;;;;;5034600;28;19921;-81
2022/11/22 01:03:44;;;;;;;;;;;3.70;99.90;;;;;;5017560;28;19925;-80
2022/11/22 01:06:09;;;;;;;;;;;3.70;99.90;;;;;;5016532;28;20365;-80
2022/11/22 01:08:35;;;;;;;;;;;3.70;99.90;;;;;;5007601;28;20166;-81
2022/11/22 01:11:01;;;;;;;;;;;3.70;99.90;;;;;;5017810;28;20021;-80
2022/11/22 01:13:27;;;;;;;;;;;3.70;99.90;;;;;;5020216;28;19932;-81
2022/11/22 01:15:57;;;;;;;;;;;3.70;99.90;;;;;;5015420;28;20406;-81
2022/11/22 01:18:22;;;;;;;;;;;3.80;99.90;;;;;;5017273;28;20257;-81
2022/11/22 01:20:48;;;;;;;;;;;3.70;99.90;;;;;;5015587;28;19928;-81
2022/11/22 01:23:13;;;;;;;;;;;3.70;99.90;;;;;;5017732;28;19974;-82
2022/11/22 01:25:41;;;;;;;;;;;3.70;99.90;;;;;;5014337;28;20030;-81
2022/11/22 01:28:07;;;;;;;;;;;3.80;99.90;;;;;;5022975;28;20280;-80
2022/11/22 01:30:32;;;;;;;;;;;3.80;99.90;;;;;;5019804;28;19921;-80
2022/11/22 01:32:58;;;;;;;;;;;3.80;99.90;;;;;;5015911;28;20547;-85
2022/11/22 01:35:23;;;;;;;;;;;3.80;99.90;;;;;;5033739;28;19995;-82
2022/11/22 01:37:49;;;;;;;;;;;3.80;99.90;;;;;;5001927;28;19928;-81
2022/11/22 01:40:14;;;;;;;;;;;3.80;99.90;;;;;;5015923;28;20015;-80
2022/11/22 01:42:50;;;;;;;;;;;3.80;99.90;;;;;;5007338;28;19935;-81
2022/11/22 01:45:28;;;;;;;;;;;3.80;99.90;;;;;;5020756;28;19921;-81
2022/11/22 01:47:56;;;;;;;;;;;3.90;99.90;;;;;;5022937;28;20016;-82
2022/11/22 01:50:21;;;;;;;;;;;3.90;99.90;;;;;;5017409;28;20250;-81
2022/11/22 01:52:47;;;;;;;;;;;3.90;99.90;;;;;;5018028;28;19928;-81
2022/11/22 01:55:13;;;;;;;;;;;3.90;99.90;;;;;;5017037;28;19922;-80
2022/11/22 01:57:39;;;;;;;;;;;3.90;99.90;;;;;;5034787;28;20047;-81
2022/11/22 02:00:09;;;;;;;;;;;3.90;99.90;;;;;;5016296;28;19929;-80
2022/11/22 02:02:35;;;;;;;;;;;3.90;99.90;;;;;;5025249;28;20442;-81
2022/11/22 02:05:02;;;;;;;;;;;4.00;99.90;;;;;;5034832;28;19920;-80
2022/11/22 02:07:31;;;;;;;;;;;4.00;99.90;;;;;;5016859;28;19921;-81
2022/11/22 02:09:56;;;;;;;;;;;4.00;99.90;;;;;;5030529;28;19921;-82
2022/11/22 02:12:25;;;;;;;;;;;4.00;99.90;;;;;;5014390;28;19997;-80
2022/11/22 02:14:51;;;;;;;;;;;4.00;99.90;;;;;;5038276;28;20407;-80
2022/11/22 02:17:16;;;;;;;;;;;4.00;99.90;;;;;;5017991;28;20396;-80
2022/11/22 02:19:46;;;;;;;;;;;4.00;99.90;;;;;;5010759;28;19953;-81
2022/11/22 02:22:33;;;;;;;;;;;4.10;99.90;;;;;;5015261;28;19927;-82
2022/11/22 02:25:14;;;;;;;;;;;4.10;99.90;;;;;;5011933;28;19929;-81
2022/11/22 02:27:40;;;;;;;;;;;4.10;99.90;;;;;;5014295;28;20428;-83
2022/11/22 02:30:06;;;;;;;;;;;4.10;99.90;;;;;;5018634;28;20004;-83
2022/11/22 02:32:32;;;;;;;;;;;4.10;99.90;;;;;;5025602;28;19930;-84
2022/11/22 02:34:57;;;;;;;;;;;4.10;99.90;;;;;;5020601;28;20372;-82
2022/11/22 02:37:25;;;;;;;;;;;4.20;99.90;;;;;;5020146;28;20366;-81
2022/11/22 02:39:53;;;;;;;;;;;4.20;99.90;;;;;;5016874;28;19979;-81
2022/11/22 02:42:19;;;;;;;;;;;4.10;99.90;;;;;;5018377;28;19921;-81
2022/11/22 02:44:44;;;;;;;;;;;4.20;99.90;;;;;;5016268;28;19947;-81
2022/11/22 02:47:10;;;;;;;;;;;4.20;99.90;;;;;;5015232;28;19928;-81
2022/11/22 02:49:36;;;;;;;;;;;4.20;99.90;;;;;;5015102;28;19928;-81
2022/11/22 02:52:01;;;;;;;;;;;4.20;99.90;;;;;;5021760;28;19929;-80
2022/11/22 02:54:27;;;;;;;;;;;4.20;99.90;;;;;;5014101;28;19921;-80
2022/11/22 02:56:52;;;;;;;;;;;4.20;99.90;;;;;;5024854;28;20825;-80
2022/11/22 02:59:18;;;;;;;;;;;4.30;99.90;;;;;;5036905;28;19921;-81
2022/11/22 03:01:44;;;;;;;;;;;4.30;99.90;;;;;;5015707;28;19921;-82
2022/11/22 03:04:23;;;;;;;;;;;4.20;99.90;;;;;;5022422;28;19925;-80
2022/11/22 03:06:58;;;;;;;;;;;4.30;99.90;;;;;;5017314;28;20007;-80
2022/11/22 03:09:24;;;;;;;;;;;4.30;99.90;;;;;;5014107;28;21096;-84
2022/11/22 03:11:50;;;;;;;;;;;4.30;99.90;;;;;;5015399;28;19921;-80
2022/11/22 03:14:16;;;;;;;;;;;4.30;99.90;;;;;;5032705;28;19971;-81
2022/11/22 03:16:42;;;;;;;;;;;4.40;99.90;;;;;;5030646;28;19922;-82
2022/11/22 03:19:07;;;;;;;;;;;4.40;99.90;;;;;;5016634;28;20289;-80
2022/11/22 03:21:33;;;;;;;;;;;4.40;99.90;;;;;;5014584;28;19929;-80
2022/11/22 03:23:58;;;;;;;;;;;4.40;99.90;;;;;;5010777;28;19921;-81
2022/11/22 03:26:24;;;;;;;;;;;4.40;99.90;;;;;;5019987;28;19928;-81
2022/11/22 03:28:49;;;;;;;;;;;4.40;99.90;;;;;;5017043;28;19928;-80
2022/11/22 03:31:15;;;;;;;;;;;4.40;99.90;;;;;;5019951;28;19972;-81
2022/11/22 03:33:41;;;;;;;;;;;4.40;99.90;;;;;;5021206;28;19932;-81
2022/11/22 03:36:06;;;;;;;;;;;4.50;99.90;;;;;;5007849;28;19929;-84
2022/11/22 03:38:33;;;;;;;;;;;4.40;99.90;;;;;;5021923;28;20280;-82
2022/11/22 03:40:58;;;;;;;;;;;4.50;99.90;;;;;;5023820;28;20332;-81
2022/11/22 03:43:24;;;;;;;;;;;4.50;99.90;;;;;;5016193;28;20004;-80
2022/11/22 03:45:50;;;;;;;;;;;4.50;99.90;;;;;;5019159;28;20055;-80
2022/11/22 03:48:15;;;;;;;;;;;4.50;99.90;;;;;;5015025;28;20713;-82
2022/11/22 03:50:41;;;;;;;;;;;4.60;99.90;;;;;;5014199;28;20072;-81
2022/11/22 03:53:06;;;;;;;;;;;4.60;99.90;;;;;;5019678;28;19925;-81
2022/11/22 03:55:32;;;;;;;;;;;4.50;99.90;;;;;;5019045;28;19921;-81
2022/11/22 03:57:58;;;;;;;;;;;4.60;99.90;;;;;;5030856;28;19932;-80
2022/11/22 04:00:23;;;;;;;;;;;4.60;99.90;;;;;;5021156;28;19921;-80
2022/11/22 04:02:49;;;;;;;;;;;4.70;99.90;;;;;;5032353;28;20067;-82
2022/11/22 04:05:15;;;;;;;;;;;4.70;99.90;;;;;;5022156;28;20014;-81
2022/11/22 04:07:41;;;;;;;;;;;4.70;99.90;;;;;;5022631;28;19921;-82
2022/11/22 04:10:06;;;;;;;;;;;4.70;99.90;;;;;;5008567;28;19967;-81
2022/11/22 04:12:32;;;;;;;;;;;4.70;99.90;;;;;;5028507;28;19925;-81
2022/11/22 04:15:07;;;;;;;;;;;4.70;99.90;;;;;;5021006;28;19929;-81
2022/11/22 04:17:46;;;;;;;;;;;4.70;99.90;;;;;;5018667;28;19968;-82
2022/11/22 04:23:20;;;;;;;;;;;4.80;99.90;;;;;;5018508;28;20410;-81
2022/11/22 04:25:46;;;;;;;;;;;4.90;99.90;;;;;;5018204;28;20373;-81
2022/11/22 04:28:13;;;;;;;;;;;5.00;99.90;;;;;;5038837;28;19921;-83
2022/11/22 04:33:23;;;;;;;;;;;5.00;99.90;;;;;;5017266;28;19921;-80
2022/11/22 04:35:49;;;;;;;;;;;5.10;99.90;;;;;;5025673;28;19921;-81
2022/11/22 04:38:15;;;;;;;;;;;5.10;99.90;;;;;;5032472;28;19975;-81
2022/11/22 04:40:41;;;;;;;;;;;5.10;99.90;;;;;;5028544;28;20019;-80
2022/11/22 04:45:53;;;;;;;;;;;5.10;99.90;;;;;;5015069;28;19922;-81
2022/11/22 04:48:18;;;;;;;;;;;5.10;99.90;;;;;;5014319;28;20247;-81
2022/11/22 04:53:29;;;;;;;;;;;5.10;99.90;;;;;;5016039;28;19968;-81
2022/11/22 04:55:54;;;;;;;;;;;5.20;99.90;;;;;;5024027;28;19965;-80
2022/11/22 04:58:20;;;;;;;;;;;5.20;99.90;;;;;;5014846;28;19925;-80
2022/11/22 05:00:46;;;;;;;;;;;5.30;99.90;;;;;;5014611;28;19922;-81
2022/11/22 05:03:12;;;;;;;;;;;5.20;99.90;;;;;;5039234;28;19971;-81
2022/11/22 05:05:39;;;;;;;;;;;5.20;99.90;;;;;;5018601;28;20288;-82
2022/11/22 05:08:05;;;;;;;;;;;5.20;99.90;;;;;;5030520;28;19948;-83
2022/11/22 05:10:55;;;;;;;;;;;5.20;99.90;;;;;;5020734;28;19921;-81
2022/11/22 05:13:16;;;;;;;;;;;5.20;99.90;;;;;;5022572;28;19971;-81
2022/11/22 05:15:42;;;;;;;;;;;5.20;99.90;;;;;;5023372;28;19977;-80
2022/11/22 05:18:08;;;;;;;;;;;5.30;99.90;;;;;;5021496;28;20023;-81
2022/11/22 05:20:34;;;;;;;;;;;5.30;99.90;;;;;;5018444;28;20112;-84
2022/11/22 05:25:44;;;;;;;;;;;5.30;99.90;;;;;;5035513;28;20012;-81
2022/11/22 05:28:09;;;;;;;;;;;5.30;99.90;;;;;;5030239;28;20012;-82
2022/11/22 05:30:37;;;;;;;;;;;5.30;99.90;;;;;;4998909;28;19932;-81
2022/11/22 05:33:03;;;;;;;;;;;5.30;99.90;;;;;;5016946;28;19935;-83
2022/11/22 05:35:28;;;;;;;;;;;5.30;99.90;;;;;;5000880;28;20017;-80
2022/11/22 05:37:54;;;;;;;;;;;5.30;99.90;;;;;;5018274;28;19929;-81
2022/11/22 05:40:20;;;;;;;;;;;5.30;99.90;;;;;;5026104;28;19925;-80
2022/11/22 05:42:46;;;;;;;;;;;5.30;99.90;;;;;;5010261;28;20487;-80
2022/11/22 05:45:11;;;;;;;;;;;5.30;99.90;;;;;;5036884;28;19968;-81
2022/11/22 05:47:37;;;;;;;;;;;5.30;99.90;;;;;;5022027;28;20003;-83
2022/11/22 05:50:02;;;;;;;;;;;5.20;99.90;;;;;;5014490;28;19921;-80
2022/11/22 05:52:28;;;;;;;;;;;5.20;99.90;;;;;;5016142;28;20044;-79
2022/11/22 05:54:54;;;;;;;;;;;5.20;99.90;;;;;;5015512;28;19921;-80
2022/11/22 05:57:20;;;;;;;;;;;5.20;99.90;;;;;;5021135;28;20345;-80
2022/11/22 05:59:45;;;;;;;;;;;5.10;99.90;;;;;;5034712;28;20410;-80
2022/11/22 06:02:11;;;;;;;;;;;5.10;99.90;;;;;;5030704;28;19963;-80
2022/11/22 06:04:36;;;;;;;;;;;5.00;99.90;;;;;;5005358;28;19999;-80
2022/11/22 06:07:02;;;;;;;;;;;4.90;99.90;;;;;;5002247;28;20238;-80
2022/11/22 06:09:27;;;;;;;;;;;4.90;99.90;;;;;;5018014;28;19921;-80
2022/11/22 06:11:53;;;;;;;;;;;4.80;99.90;;;;;;5021723;28;20356;-80
2022/11/22 06:14:18;;;;;;;;;;;4.70;99.90;;;;;;5032266;28;20002;-83
2022/11/22 06:16:44;;;;;;;;;;;4.60;99.90;;;;;;5016574;28;19976;-80
2022/11/22 06:19:09;;;;;;;;;;;4.70;99.90;;;;;;5019789;28;19921;-81
2022/11/22 06:21:35;;;;;;;;;;;4.60;99.90;;;;;;5015039;28;19929;-80
2022/11/22 06:24:01;;;;;;;;;;;4.60;99.90;;;;;;5032112;28;20356;-80
2022/11/22 06:26:26;;;;;;;;;;;4.50;99.90;;;;;;5019859;28;20016;-86
2022/11/22 06:28:52;;;;;;;;;;;4.50;99.90;;;;;;5020036;28;19972;-81
2022/11/22 06:31:25;;;;;;;;;;;4.50;99.90;;;;;;5011342;28;19921;-80
2022/11/22 06:33:54;;;;;;;;;;;4.50;99.90;;;;;;5017148;28;19931;-80
2022/11/22 06:36:22;;;;;;;;;;;4.40;99.90;;;;;;5023027;28;19932;-81
2022/11/22 06:38:47;;;;;;;;;;;4.40;99.90;;;;;;5009841;28;20011;-79
2022/11/22 06:41:14;;;;;;;;;;;4.30;99.90;;;;;;5022271;28;20356;-79
2022/11/22 06:43:40;;;;;;;;;;;4.40;99.90;;;;;;5012262;28;21221;-84
2022/11/22 06:46:06;;;;;;;;;;;4.40;99.90;;;;;;5039904;28;20384;-80
2022/11/22 06:48:33;;;;;;;;;;;4.40;99.90;;;;;;4996355;28;19921;-81
2022/11/22 06:51:02;;;;;;;;;;;4.40;99.90;;;;;;5019111;28;19967;-80
2022/11/22 06:53:29;;;;;;;;;;;4.40;99.90;;;;;;5033580;28;19932;-85
2022/11/22 06:56:01;;;;;;;;;;;4.30;99.90;;;;;;5022007;28;20254;-81
2022/11/22 06:58:27;;;;;;;;;;;4.30;99.90;;;;;;5041246;28;20257;-81
2022/11/22 07:00:57;;;;;;;;;;;4.30;99.90;;;;;;5033793;28;19936;-81
2022/11/22 07:03:23;;;;;;;;;;;4.30;99.90;;;;;;5020892;28;19921;-82
2022/11/22 07:05:51;;;;;;;;;;;4.30;99.90;;;;;;5035362;28;19944;-81
2022/11/22 07:08:17;;;;;;;;;;;4.30;99.90;;;;;;5034504;28;19921;-80
2022/11/22 07:10:42;;;;;;;;;;;4.20;99.90;;;;;;5036976;28;19932;-80
2022/11/22 07:13:08;;;;;;;;;;;4.20;99.90;;;;;;5002235;28;19960;-81
2022/11/22 07:15:33;;;;;;;;;;;4.20;99.90;;;;;;5038173;28;19921;-84
2022/11/22 07:17:59;;;;;;;;;;;4.30;99.90;;;;;;5023381;28;19968;-80
2022/11/22 07:20:24;;;;;;;;;;;4.20;99.90;;;;;;5018439;28;19925;-80
2022/11/22 07:22:50;;;;;;;;;;;4.30;99.90;;;;;;5020852;28;19921;-83
2022/11/22 07:25:15;;;;;;;;;;;4.20;99.90;;;;;;5006054;28;19967;-81
2022/11/22 07:27:41;;;;;;;;;;;4.40;99.90;;;;;;5008137;28;20261;-80
2022/11/22 07:30:07;;;;;;;;;;;4.30;99.90;;;;;;5035296;28;19932;-82
2022/11/22 07:32:33;;;;;;;;;;;4.30;99.90;;;;;;5006750;28;19928;-82
2022/11/22 07:34:59;;;;;;;;;;;4.40;99.90;;;;;;5013942;28;20404;-83
2022/11/22 07:37:24;;;;;;;;;;;4.30;99.90;;;;;;5033022;28;20051;-84
2022/11/22 07:39:50;;;;;;;;;;;4.40;99.90;;;;;;5023162;28;20336;-83
2022/11/22 07:42:15;;;;;;;;;;;4.30;99.90;;;;;;5031148;28;19930;-81
2022/11/22 07:44:41;;;;;;;;;;;4.40;99.90;;;;;;5022027;28;20019;-81
2022/11/22 07:47:06;;;;;;;;;;;4.30;99.90;;;;;;5040439;28;19921;-81
2022/11/22 07:49:32;;;;;;;;;;;4.30;99.90;;;;;;5009979;28;20349;-80
2022/11/22 07:51:58;;;;;;;;;;;4.30;99.90;;;;;;5023358;28;19928;-80
2022/11/22 07:54:24;;;;;;;;;;;4.40;99.90;;;;;;5024693;28;19928;-80
2022/11/22 07:56:49;;;;;;;;;;;4.30;99.90;;;;;;5037335;28;19924;-80
2022/11/22 07:59:15;;;;;;;;;;;4.30;99.90;;;;;;5025740;28;19924;-82
2022/11/22 08:01:40;;;;;;;;;;;4.40;99.90;;;;;;5022914;28;20335;-80
2022/11/22 08:04:06;;;;;;;;;;;4.40;99.90;;;;;;5012316;28;19921;-80
2022/11/22 08:06:31;;;;;;;;;;;4.40;99.90;;;;;;5034681;28;20380;-80
2022/11/22 08:08:57;;;;;;;;;;;4.30;99.90;;;;;;5033198;28;19968;-81
2022/11/22 08:11:23;;;;;;;;;;;4.40;99.90;;;;;;5014894;28;19925;-82
2022/11/22 08:13:48;;;;;;;;;;;4.50;99.90;;;;;;5023185;28;19927;-80
2022/11/22 08:16:15;;;;;;;;;;;4.50;99.90;;;;;;5015868;28;19921;-80
2022/11/22 08:18:44;;;;;;;;;;;4.60;99.90;;;;;;5019013;28;19928;-82
2022/11/22 08:21:10;;;;;;;;;;;4.60;99.90;;;;;;5015430;28;19932;-81
2022/11/22 08:23:36;;;;;;;;;;;4.60;99.90;;;;;;5004913;28;20269;-81
2022/11/22 08:26:02;;;;;;;;;;;4.70;99.90;;;;;;5020161;28;19921;-81
2022/11/22 08:28:28;;;;;;;;;;;4.70;99.90;;;;;;5017075;28;20361;-81
2022/11/22 08:31:04;;;;;;;;;;;4.70;99.90;;;;;;5015788;28;19973;-82
2022/11/22 08:33:30;;;;;;;;;;;4.70;99.90;;;;;;5026105;28;20016;-80
2022/11/22 08:35:56;;;;;;;;;;;4.80;99.90;;;;;;5040784;28;20008;-80
2022/11/22 08:38:21;;;;;;;;;;;4.80;99.90;;;;;;5018598;28;19922;-82
2022/11/22 08:40:47;;;;;;;;;;;4.80;99.90;;;;;;5036538;28;19932;-80
2022/11/22 08:43:13;;;;;;;;;;;4.80;99.90;;;;;;5035004;28;19925;-80
2022/11/22 08:45:38;;;;;;;;;;;4.80;99.90;;;;;;5024045;28;19952;-80
2022/11/22 08:48:04;;;;;;;;;;;4.90;99.90;;;;;;4998861;28;19925;-80
2022/11/22 08:50:29;;;;;;;;;;;5.00;99.90;;;;;;5019527;28;19928;-80
2022/11/22 08:52:55;;;;;;;;;;;5.10;99.90;;;;;;5020021;28;19924;-79
2022/11/22 08:55:20;;;;;;;;;;;5.20;99.90;;;;;;5019507;28;19921;-80
2022/11/22 08:57:46;;;;;;;;;;;5.30;99.90;;;;;;5022347;28;19941;-82
2022/11/22 09:00:17;;;;;;;;;;;5.30;99.90;;;;;;5031660;28;20013;-82
2022/11/22 09:02:43;;;;;;;;;;;5.40;99.90;;;;;;5025608;28;19964;-81
2022/11/22 09:05:08;;;;;;;;;;;5.50;99.90;;;;;;4999897;28;20378;-84
2022/11/22 09:07:34;;;;;;;;;;;5.50;99.90;;;;;;5016237;28;19936;-82
2022/11/22 09:09:59;;;;;;;;;;;5.60;99.90;;;;;;5006850;28;19925;-85
2022/11/22 09:12:25;;;;;;;;;;;5.60;99.90;;;;;;5018499;28;20040;-82
2022/11/22 09:14:51;;;;;;;;;;;5.60;99.90;;;;;;5018043;28;19987;-85
2022/11/22 09:17:16;;;;;;;;;;;5.70;99.90;;;;;;5032745;28;19922;-82
2022/11/22 09:19:42;;;;;;;;;;;5.70;99.90;;;;;;5022711;28;19964;-82
2022/11/22 09:22:08;;;;;;;;;;;5.80;99.90;;;;;;5017124;28;19979;-83
2022/11/22 09:24:34;;;;;;;;;;;5.80;99.90;;;;;;5016333;28;19925;-82
2022/11/22 09:26:59;;;;;;;;;;;5.90;99.90;;;;;;5030052;28;19929;-82
2022/11/22 09:29:26;;;;;;;;;;;6.10;99.90;;;;;;5014002;28;19925;-81
2022/11/22 09:31:54;;;;;;;;;;;6.20;99.90;;;;;;4993449;28;19980;-82
2022/11/22 09:34:20;;;;;;;;;;;6.20;99.90;;;;;;5032915;28;19921;-82
2022/11/22 09:36:45;;;;;;;;;;;6.10;99.90;;;;;;5015656;28;19936;-86
2022/11/22 09:39:11;;;;;;;;;;;6.20;99.90;;;;;;5021311;28;19921;-83
2022/11/22 09:41:46;;;;;;;;;;;6.20;99.90;;;;;;5035928;28;19983;-82
2022/11/22 09:44:20;;;;;;;;;;;6.20;99.90;;;;;;5037384;28;19971;-82
2022/11/22 09:46:53;;;;;;;;;;;6.30;99.90;;;;;;5038674;28;19929;-83
2022/11/22 09:49:26;;;;;;;;;;;6.30;99.90;;;;;;5022078;28;19921;-81
2022/11/22 09:52:12;;;;;;;;;;;6.30;99.90;;;;;;5012717;28;19921;-82
2022/11/22 09:54:41;;;;;;;;;;;6.30;99.90;;;;;;5017281;28;19925;-85
2022/11/22 09:57:09;;;;;;;;;;;6.40;99.90;;;;;;5016399;28;19955;-82
2022/11/22 09:59:37;;;;;;;;;;;6.50;99.90;;;;;;5018392;28;20353;-81
2022/11/22 10:02:06;;;;;;;;;;;6.50;99.90;;;;;;5022337;28;19929;-82
2022/11/22 10:04:37;;;;;;;;;;;6.50;99.90;;;;;;5013845;28;19925;-83
2022/11/22 10:07:14;;;;;;;;;;;6.50;99.90;;;;;;5016792;28;19925;-82
2022/11/22 10:09:46;;;;;;;;;;;6.50;99.90;;;;;;5026358;28;20372;-80
2022/11/22 10:12:18;;;;;;;;;;;6.50;99.90;;;;;;5030223;28;19977;-83
2022/11/22 10:15:01;;;;;;;;;;;6.60;99.90;;;;;;5011747;28;20391;-81
2022/11/22 10:17:32;;;;;;;;;;;6.60;99.90;;;;;;5026554;28;19960;-80
2022/11/22 10:20:03;;;;;;;;;;;6.70;99.90;;;;;;5019244;28;19925;-81
2022/11/22 10:22:29;;;;;;;;;;;6.70;99.90;;;;;;5047008;28;19925;-81
2022/11/22 10:24:55;;;;;;;;;;;6.70;99.90;;;;;;5031604;28;19921;-81
2022/11/22 10:27:21;;;;;;;;;;;6.80;99.90;;;;;;5031272;28;19991;-81
2022/11/22 10:29:46;;;;;;;;;;;6.90;99.90;;;;;;5017200;28;19921;-84
2022/11/22 10:32:31;;;;;;;;;;;6.90;99.90;;;;;;5044485;28;20013;-82
2022/11/22 10:34:56;;;;;;;;;;;6.90;99.90;;;;;;4999055;28;20388;-83
2022/11/22 10:37:22;;;;;;;;;;;6.90;99.90;;;;;;5015023;28;19932;-80
2022/11/22 10:39:47;;;;;;;;;;;6.90;99.90;;;;;;5034474;28;19975;-81
2022/11/22 10:42:13;;;;;;;;;;;6.90;99.90;;;;;;5031682;28;19991;-81
2022/11/22 10:45:02;;;;;;;;;;;6.90;99.90;;;;;;5035938;28;19928;-82
2022/11/22 10:47:46;;;;;;;;;;;6.90;99.90;;;;;;5051956;28;19929;-82
2022/11/22 10:50:12;;;;;;;;;;;7.00;99.90;;;;;;5033935;28;20020;-81
2022/11/22 10:52:38;;;;;;;;;;;7.10;99.90;;;;;;5031729;28;20011;-82
2022/11/22 10:55:09;;;;;;;;;;;7.10;99.90;;;;;;5050793;28;19925;-82
2022/11/22 10:57:58;;;;;;;;;;;7.20;99.90;;;;;;5002390;28;19921;-82
2022/11/22 11:00:25;;;;;;;;;;;7.20;99.90;;;;;;5019473;28;19922;-80
2022/11/22 11:03:09;;;;;;;;;;;7.30;99.90;;;;;;5021728;28;20431;-80
2022/11/22 11:05:55;;;;;;;;;;;7.30;99.90;;;;;;5016425;28;19922;-80
2022/11/22 11:08:29;;;;;;;;;;;7.30;99.90;;;;;;5012709;28;20329;-81
2022/11/22 11:10:55;;;;;;;;;;;7.40;99.90;;;;;;5031519;28;19940;-80
2022/11/22 11:13:23;;;;;;;;;;;7.50;99.90;;;;;;5016462;28;19936;-81
2022/11/22 11:15:50;;;;;;;;;;;7.50;99.90;;;;;;5029888;28;20364;-80
2022/11/22 11:18:22;;;;;;;;;;;7.50;99.90;;;;;;5030957;28;19925;-77
2022/11/22 11:20:50;;;;;;;;;;;7.50;99.90;;;;;;5042443;28;20364;-78
2022/11/22 11:23:15;;;;;;;;;;;7.50;99.90;;;;;;5036318;28;20020;-79
2022/11/22 11:25:42;;;;;;;;;;;7.50;99.90;;;;;;5015401;28;20055;-85
2022/11/22 11:28:11;;;;;;;;;;;7.50;99.90;;;;;;5027833;28;19921;-81
2022/11/22 11:30:38;;;;;;;;;;;7.50;99.90;;;;;;5030622;28;20367;-81
2022/11/22 11:33:13;;;;;;;;;;;7.50;99.90;;;;;;5030726;28;19928;-81
2022/11/22 11:35:39;;;;;;;;;;;7.50;99.90;;;;;;5031280;28;20059;-81
2022/11/22 11:38:24;;;;;;;;;;;7.60;99.90;;;;;;5014293;28;19921;-81
2022/11/22 11:40:50;;;;;;;;;;;7.50;99.90;;;;;;5028227;28;19925;-81
2022/11/22 11:43:20;;;;;;;;;;;7.60;99.90;;;;;;5039347;28;19929;-81
2022/11/22 11:45:46;;;;;;;;;;;7.70;99.90;;;;;;5015488;28;19929;-81
2022/11/22 11:48:28;;;;;;;;;;;7.70;99.90;;;;;;5017717;28;19991;-82
2022/11/22 11:51:12;;;;;;;;;;;7.70;99.90;;;;;;5018821;28;19921;-80
2022/11/22 11:53:38;;;;;;;;;;;7.70;99.90;;;;;;5038494;28;19925;-81
2022/11/22 11:56:17;;;;;;;;;;;7.70;99.90;;;;;;5013866;28;19932;-79
2022/11/22 11:58:48;;;;;;;;;;;7.70;99.90;;;;;;5002283;28;20067;-80
2022/11/22 12:01:19;;;;;;;;;;;7.70;99.90;;;;;;5013983;28;20340;-80
2022/11/22 12:03:58;;;;;;;;;;;7.70;99.90;;;;;;5013749;28;19922;-81
2022/11/22 12:06:28;;;;;;;;;;;7.70;99.90;;;;;;5045892;28;19971;-80
2022/11/22 12:08:55;;;;;;;;;;;7.70;99.90;;;;;;5020080;28;20537;-81
2022/11/22 12:11:25;;;;;;;;;;;7.70;99.90;;;;;;5013729;28;19925;-81
2022/11/22 12:14:02;;;;;;;;;;;7.70;99.90;;;;;;5014941;28;19928;-81
2022/11/22 12:16:28;;;;;;;;;;;7.70;99.90;;;;;;5020519;28;19944;-81
2022/11/22 12:18:58;;;;;;;;;;;7.70;99.90;;;;;;5030514;28;20443;-81
2022/11/22 12:21:42;;;;;;;;;;;7.70;99.90;;;;;;5030434;28;19921;-80
2022/11/22 12:24:27;;;;;;;;;;;7.60;99.90;;;;;;5048802;28;19921;-81
2022/11/22 12:26:53;;;;;;;;;;;7.60;99.90;;;;;;5036933;28;20396;-80
2022/11/22 12:29:19;;;;;;;;;;;7.60;99.90;;;;;;4980758;28;19926;-81
2022/11/22 12:31:52;;;;;;;;;;;7.60;99.90;;;;;;5013678;28;19969;-81
2022/11/22 12:34:36;;;;;;;;;;;7.60;99.90;;;;;;5014367;28;19933;-81
2022/11/22 12:37:02;;;;;;;;;;;7.60;99.90;;;;;;5003416;28;19936;-81
2022/11/22 12:39:28;;;;;;;;;;;7.60;99.90;;;;;;4997248;28;19947;-81
2022/11/22 12:41:58;;;;;;;;;;;7.60;99.90;;;;;;5013110;28;19948;-78
2022/11/22 12:44:25;;;;;;;;;;;7.60;99.90;;;;;;5013313;28;19921;-78
2022/11/22 12:46:53;;;;;;;;;;;7.60;99.90;;;;;;5014364;28;19932;-79
2022/11/22 12:49:28;;;;;;;;;;;7.60;99.90;;;;;;5014461;28;19921;-79
2022/11/22 12:52:00;;;;;;;;;;;7.50;99.90;;;;;;5039389;28;19933;-78
2022/11/22 12:54:32;;;;;;;;;;;7.50;99.90;;;;;;5013168;28;20316;-79
2022/11/22 12:57:01;;;;;;;;;;;7.50;99.90;;;;;;5028071;28;19986;-80
2022/11/22 13:00:05;;;;;;;;;;;7.50;99.90;;;;;;5015878;28;20339;-80
2022/11/22 13:02:53;;;;;;;;;;;7.40;99.90;;;;;;5013245;28;19926;-79
2022/11/22 13:05:21;;;;;;;;;;;7.40;99.90;;;;;;4994217;28;19921;-81
2022/11/22 13:07:57;;;;;;;;;;;7.40;99.90;;;;;;5012068;28;19929;-80
2022/11/22 13:10:37;;;;;;;;;;;7.40;99.90;;;;;;5011667;28;20040;-81
2022/11/22 13:13:05;;;;;;;;;;;7.40;99.90;;;;;;5021370;28;19925;-80
2022/11/22 13:15:32;;;;;;;;;;;7.30;99.90;;;;;;5018817;28;19925;-80
2022/11/22 13:17:57;;;;;;;;;;;7.30;99.90;;;;;;5018028;28;19972;-80
2022/11/22 13:20:25;;;;;;;;;;;7.30;99.90;;;;;;5020829;28;20026;-83
2022/11/22 13:22:54;;;;;;;;;;;7.40;99.90;;;;;;5046610;28;20287;-80
2022/11/22 13:25:29;;;;;;;;;;;7.30;99.90;;;;;;5003679;28;20373;-83
2022/11/22 13:27:59;;;;;;;;;;;7.30;99.90;;;;;;5018778;28;19956;-83
2022/11/22 13:30:26;;;;;;;;;;;7.20;99.90;;;;;;5013786;28;19921;-80
2022/11/22 13:32:58;;;;;;;;;;;7.20;99.90;;;;;;5012950;28;19926;-81
2022/11/22 13:35:43;;;;;;;;;;;7.20;99.90;;;;;;5024703;28;19939;-80
2022/11/22 13:38:13;;;;;;;;;;;7.20;99.90;;;;;;5048151;28;19921;-81
2022/11/22 13:40:43;;;;;;;;;;;7.30;99.90;;;;;;5028957;28;19921;-80
2022/11/22 13:43:14;;;;;;;;;;;7.20;99.90;;;;;;5046558;28;20043;-80
2022/11/22 13:45:47;;;;;;;;;;;7.20;99.90;;;;;;5011430;28;19921;-80
2022/11/22 13:48:13;;;;;;;;;;;7.30;99.90;;;;;;5023773;28;20012;-80
2022/11/22 13:50:40;;;;;;;;;;;7.40;99.90;;;;;;5014846;28;20009;-81
2022/11/22 13:53:35;;;;;;;;;;;7.30;99.90;;;;;;5013225;28;20023;-82
2022/11/22 13:56:27;;;;;;;;;;;7.30;99.90;;;;;;5011418;28;19928;-81
2022/11/22 13:59:03;;;;;;;;;;;7.30;99.90;;;;;;5004820;28;19921;-81
2022/11/22 14:01:47;;;;;;;;;;;7.30;99.90;;;;;;5014568;28;19984;-81
2022/11/22 14:04:16;;;;;;;;;;;7.30;99.90;;;;;;5040991;28;19920;-79
2022/11/22 14:06:50;;;;;;;;;;;7.20;99.90;;;;;;5040259;28;19960;-81
2022/11/22 14:09:27;;;;;;;;;;;7.30;99.90;;;;;;5007809;28;19944;-79
2022/11/22 14:12:13;;;;;;;;;;;7.30;99.90;;;;;;5040538;28;20316;-79
2022/11/22 14:14:52;;;;;;;;;;;7.20;99.90;;;;;;5047682;28;19925;-82
2022/11/22 14:17:24;;;;;;;;;;;7.20;99.90;;;;;;5019284;28;19937;-79
2022/11/22 14:19:49;;;;;;;;;;;7.20;99.90;;;;;;5022701;28;19976;-83
2022/11/22 14:22:35;;;;;;;;;;;7.20;99.90;;;;;;5032215;28;20265;-81
2022/11/22 14:25:01;;;;;;;;;;;7.20;99.90;;;;;;5034736;28;20015;-82
2022/11/22 14:27:45;;;;;;;;;;;7.10;99.90;;;;;;5043823;28;19979;-81
2022/11/22 14:30:17;;;;;;;;;;;7.20;99.90;;;;;;5032847;28;19921;-81
2022/11/22 14:32:50;;;;;;;;;;;7.20;99.90;;;;;;5021280;28;19922;-81
2022/11/22 14:35:22;;;;;;;;;;;7.10;99.90;;;;;;5024403;28;19931;-81
2022/11/22 14:37:58;;;;;;;;;;;7.20;99.90;;;;;;5021580;28;19921;-81
2022/11/22 14:40:36;;;;;;;;;;;7.10;99.90;;;;;;5027926;28;19922;-81
2022/11/22 14:43:17;;;;;;;;;;;7.10;99.90;;;;;;5020982;28;19925;-81
2022/11/22 14:45:47;;;;;;;;;;;7.10;99.90;;;;;;5031640;28;19925;-81
2022/11/22 14:48:18;;;;;;;;;;;7.10;99.90;;;;;;5032170;28;19921;-80
2022/11/22 14:50:47;;;;;;;;;;;7.10;99.90;;;;;;5047807;28;20300;-81
2022/11/22 14:53:31;;;;;;;;;;;7.10;99.90;;;;;;5027136;28;19976;-81